Time;durP1;ratioP1;P1;durP2;ratioP2;P2;SDS_P1;SDS_P2;PMS_P1;PMS_P2;Temp;Humidity;BMP_temperature;BMP_pressure;BME280_temperature;BME280_humidity;BME280_pressure;Samples;Min_cycle;Max_cycle;Signal;HPM_P1;HPM_P2
2024/02/19 00:01:58;;;;;;;30.93;18.00;;;9.60;99.90;;;;;;5032606;28;20026;-73
2024/02/19 00:04:24;;;;;;;28.23;17.50;;;9.70;99.90;;;;;;5032283;28;20466;-73
2024/02/19 00:06:50;;;;;;;27.10;17.30;;;9.60;99.90;;;;;;5032481;28;20564;-73
2024/02/19 00:09:17;;;;;;;26.07;18.03;;;9.60;99.90;;;;;;5032280;28;20100;-73
2024/02/19 00:11:43;;;;;;;24.77;17.27;;;9.60;99.90;;;;;;5032311;28;20104;-73
2024/02/19 00:14:08;;;;;;;27.67;17.10;;;9.60;99.90;;;;;;5030927;28;20176;-73
2024/02/19 00:16:34;;;;;;;28.20;18.00;;;9.50;99.90;;;;;;5043408;28;20412;-73
2024/02/19 00:19:00;;;;;;;27.03;17.27;;;9.50;99.90;;;;;;5051961;28;20103;-72
2024/02/19 00:21:26;;;;;;;25.17;16.33;;;9.40;99.90;;;;;;5052331;28;20040;-72
2024/02/19 00:23:52;;;;;;;28.57;17.50;;;9.40;99.90;;;;;;5034821;28;20480;-71
2024/02/19 00:26:18;;;;;;;23.93;16.50;;;9.40;99.90;;;;;;5054419;28;20108;-71
2024/02/19 00:28:45;;;;;;;23.90;16.73;;;9.40;99.90;;;;;;5056281;28;20029;-71
2024/02/19 00:31:12;;;;;;;23.83;15.60;;;9.30;99.90;;;;;;5056134;28;20040;-71
2024/02/19 00:33:39;;;;;;;24.20;15.47;;;9.30;99.90;;;;;;5056157;28;20025;-71
2024/02/19 00:36:44;;;;;;;21.37;13.87;;;9.30;99.90;;;;;;5055831;28;20386;-71
2024/02/19 00:53:10;;;;;;;15.47;11.50;;;9.10;99.90;;;;;;4841655;29;20030;-71
2024/02/19 00:56:15;;;;;;;18.80;11.03;;;9.10;99.90;;;;;;4852678;29;20037;-71
2024/02/19 00:59:39;;;;;;;13.50;10.30;;;9.10;99.90;;;;;;4895490;29;20040;-71
2024/02/19 01:02:53;;;;;;;;;;;;;;;;;;;;;
2024/02/19 01:05:20;;;;;;;13.40;9.53;;;9.10;99.90;;;;;;4801654;29;20373;-71
2024/02/19 01:07:46;;;;;;;12.93;9.60;;;9.10;99.90;;;;;;4966344;28;20122;-71
2024/02/19 01:10:12;;;;;;;12.80;9.57;;;9.20;99.90;;;;;;5026397;28;20432;-70
2024/02/19 01:12:38;;;;;;;14.27;9.53;;;9.10;99.90;;;;;;5037096;28;20029;-70
2024/02/19 01:15:05;;;;;;;16.73;10.00;;;9.10;99.90;;;;;;5037081;28;20448;-71
2024/02/19 01:17:31;;;;;;;14.23;9.30;;;9.10;99.90;;;;;;5054754;28;20448;-71
2024/02/19 01:19:58;;;;;;;12.93;9.23;;;9.10;99.90;;;;;;5054781;28;20021;-71
2024/02/19 01:22:24;;;;;;;14.43;9.20;;;9.10;99.90;;;;;;5054491;28;20031;-70
2024/02/19 01:24:50;;;;;;;12.43;8.83;;;9.10;99.90;;;;;;5054546;28;20033;-72
2024/02/19 01:27:16;;;;;;;12.03;8.63;;;9.10;99.90;;;;;;5036714;28;20025;-71
2024/02/19 01:29:42;;;;;;;11.37;8.50;;;9.10;99.90;;;;;;5054593;28;20457;-71
2024/02/19 01:32:08;;;;;;;11.37;8.30;;;9.10;99.90;;;;;;5054332;28;20496;-71
2024/02/19 01:34:33;;;;;;;14.77;8.97;;;9.10;99.90;;;;;;5054413;28;20067;-71
2024/02/19 01:36:59;;;;;;;13.80;9.13;;;9.10;99.90;;;;;;5054053;28;20033;-71
2024/02/19 01:39:25;;;;;;;15.17;9.07;;;9.10;99.90;;;;;;5054326;28;20040;-71
2024/02/19 01:41:51;;;;;;;17.87;9.03;;;9.10;99.90;;;;;;5054033;28;20579;-71
2024/02/19 01:44:17;;;;;;;12.70;9.40;;;9.10;99.90;;;;;;5055155;28;20033;-71
2024/02/19 01:46:44;;;;;;;15.33;8.80;;;9.10;99.90;;;;;;5074239;28;20108;-71
2024/02/19 01:49:11;;;;;;;14.23;8.57;;;9.10;99.90;;;;;;5074042;28;20117;-71
2024/02/19 01:51:38;;;;;;;12.67;8.57;;;9.10;99.90;;;;;;5073867;28;20025;-71
2024/02/19 01:54:04;;;;;;;13.13;8.30;;;9.10;99.90;;;;;;5073856;28;20113;-69
2024/02/19 01:56:31;;;;;;;12.00;8.17;;;9.10;99.90;;;;;;5073631;28;20576;-70
2024/02/19 01:58:58;;;;;;;15.57;8.60;;;9.10;99.90;;;;;;5071487;28;20477;-70
2024/02/19 02:01:26;;;;;;;12.83;8.17;;;9.10;99.90;;;;;;5071268;28;20028;-70
2024/02/19 02:03:52;;;;;;;15.07;8.67;;;9.10;99.90;;;;;;5071394;28;20116;-70
2024/02/19 02:06:18;;;;;;;13.30;8.63;;;9.10;99.90;;;;;;5073300;28;20017;-71
2024/02/19 02:08:45;;;;;;;13.80;8.23;;;9.10;99.90;;;;;;5073920;28;20025;-71
2024/02/19 02:11:11;;;;;;;12.53;8.47;;;9.10;99.90;;;;;;5074262;28;20032;-70
2024/02/19 02:13:37;;;;;;;12.90;8.53;;;9.10;99.90;;;;;;5073693;28;20043;-71
2024/02/19 02:16:04;;;;;;;12.87;8.03;;;9.10;99.90;;;;;;5073812;28;20044;-70
2024/02/19 02:18:44;;;;;;;11.67;7.73;;;9.10;99.90;;;;;;5073865;28;20029;-70
2024/02/19 02:41:22;;;;;;;;;;;9.00;99.90;;;;;;4882311;29;20440;-71
2024/02/19 02:44:32;;;;;;;11.83;6.50;;;9.10;99.90;;;;;;4932867;29;19907;-71
2024/02/19 02:46:58;;;;;;;7.50;5.43;;;9.10;99.90;;;;;;5015249;28;20532;-70
2024/02/19 02:49:25;;;;;;;7.13;5.00;;;9.10;99.90;;;;;;5072716;28;20380;-70
2024/02/19 02:51:50;;;;;;;9.13;5.23;;;9.10;99.90;;;;;;5073056;28;20388;-70
2024/02/19 02:54:16;;;;;;;9.03;5.90;;;9.20;99.90;;;;;;5073017;28;20044;-70
2024/02/19 02:56:42;;;;;;;7.17;5.23;;;9.20;99.90;;;;;;5073254;28;20051;-71
2024/02/19 02:59:08;;;;;;;7.33;5.17;;;9.20;99.90;;;;;;5055127;28;20024;-70
2024/02/19 03:01:34;;;;;;;8.73;5.00;;;9.30;99.90;;;;;;5072990;28;20111;-71
2024/02/19 03:04:00;;;;;;;8.20;4.80;;;9.30;99.90;;;;;;5072959;28;20079;-71
2024/02/19 03:06:25;;;;;;;7.20;5.00;;;9.30;99.90;;;;;;5072830;28;20128;-70
2024/02/19 03:08:51;;;;;;;8.77;5.80;;;9.40;99.90;;;;;;5072715;28;20074;-70
2024/02/19 03:11:17;;;;;;;9.03;6.00;;;9.40;99.90;;;;;;5073153;28;20031;-71
2024/02/19 03:13:43;;;;;;;9.80;7.50;;;9.40;99.90;;;;;;5054658;28;20020;-70
2024/02/19 03:16:09;;;;;;;16.00;8.57;;;9.40;99.90;;;;;;5072375;28;20059;-71
2024/02/19 03:18:35;;;;;;;14.80;8.43;;;9.40;99.90;;;;;;5072232;28;20077;-71
2024/02/19 03:21:03;;;;;;;10.07;7.67;;;9.30;99.90;;;;;;5072323;28;20059;-71
2024/02/19 03:23:29;;;;;;;10.67;8.07;;;9.30;99.90;;;;;;5072845;28;20031;-70
2024/02/19 03:25:54;;;;;;;11.27;7.80;;;9.30;99.90;;;;;;5072634;28;20024;-70
2024/02/19 03:28:20;;;;;;;12.07;7.83;;;9.20;99.90;;;;;;5072847;28;20045;-71
2024/02/19 03:30:46;;;;;;;10.37;7.70;;;9.10;99.90;;;;;;5072641;28;20031;-73
2024/02/19 03:33:12;;;;;;;11.67;8.20;;;9.10;99.90;;;;;;5072101;28;20055;-73
2024/02/19 03:35:38;;;;;;;10.43;7.77;;;9.10;99.90;;;;;;5072107;28;20047;-73
2024/02/19 03:38:04;;;;;;;11.53;8.00;;;9.00;99.90;;;;;;5054385;28;20032;-73
2024/02/19 03:40:30;;;;;;;12.27;8.70;;;9.00;99.90;;;;;;5072513;28;20037;-73
2024/02/19 03:42:56;;;;;;;12.80;7.43;;;9.00;99.90;;;;;;5054305;28;20025;-73
2024/02/19 03:45:22;;;;;;;10.77;8.00;;;8.90;99.90;;;;;;5054161;28;20052;-73
2024/02/19 03:47:48;;;;;;;13.23;8.17;;;9.00;99.90;;;;;;5072136;28;20021;-73
2024/02/19 03:50:13;;;;;;;11.63;7.33;;;9.00;99.90;;;;;;5072296;28;20028;-73
2024/02/19 03:52:39;;;;;;;13.27;7.90;;;8.90;99.90;;;;;;5072932;28;20024;-71
2024/02/19 03:55:06;;;;;;;12.27;7.70;;;8.90;99.90;;;;;;5072997;28;20021;-71
2024/02/19 03:57:31;;;;;;;10.90;7.47;;;8.90;99.90;;;;;;5072805;28;20068;-70
2024/02/19 03:59:58;;;;;;;10.53;6.93;;;8.90;99.90;;;;;;5072999;28;20110;-71
2024/02/19 04:02:24;;;;;;;11.00;7.63;;;8.80;99.90;;;;;;5076518;28;20016;-71
2024/02/19 04:05:43;;;;;;;12.73;7.77;;;8.80;99.90;;;;;;5076646;28;20419;-70
2024/02/19 04:33:02;;;;;;;14.67;7.23;;;8.80;99.90;;;;;;4843264;29;20094;-71
2024/02/19 04:35:28;;;;;;;13.33;6.87;;;8.80;99.90;;;;;;4933567;28;20430;-71
2024/02/19 04:37:54;;;;;;;11.60;7.37;;;8.80;99.90;;;;;;5046664;28;20223;-70
2024/02/19 04:40:20;;;;;;;14.87;7.23;;;8.80;99.90;;;;;;5075489;28;20104;-71
2024/02/19 04:42:46;;;;;;;11.17;7.03;;;8.80;99.90;;;;;;5075655;28;20029;-71
2024/02/19 04:45:12;;;;;;;10.23;7.50;;;8.80;99.90;;;;;;5075666;28;20032;-71
2024/02/19 04:47:37;;;;;;;10.33;6.80;;;8.70;99.90;;;;;;5075414;28;20056;-71
2024/02/19 04:50:04;;;;;;;14.57;7.23;;;8.70;99.90;;;;;;5075516;28;20099;-71
2024/02/19 04:52:30;;;;;;;12.33;7.60;;;8.80;99.90;;;;;;5074846;28;20103;-71
2024/02/19 04:54:55;;;;;;;13.30;7.27;;;8.80;99.90;;;;;;5057211;28;20112;-72
2024/02/19 04:57:21;;;;;;;10.70;7.70;;;8.80;99.90;;;;;;5075051;28;20028;-71
2024/02/19 04:59:47;;;;;;;11.57;7.30;;;8.80;99.90;;;;;;5074873;28;20028;-70
2024/02/19 05:02:13;;;;;;;13.03;7.13;;;8.80;99.90;;;;;;5075223;28;20066;-71
2024/02/19 05:04:38;;;;;;;15.53;8.67;;;8.80;99.90;;;;;;5074977;28;20028;-70
2024/02/19 05:07:04;;;;;;;11.43;7.70;;;8.80;99.90;;;;;;5074931;28;20029;-70
2024/02/19 05:09:30;;;;;;;11.77;8.10;;;8.70;99.90;;;;;;5075109;28;20032;-71
2024/02/19 05:11:56;;;;;;;12.57;7.50;;;8.80;99.90;;;;;;5074025;28;20033;-71
2024/02/19 05:14:22;;;;;;;11.50;7.60;;;8.70;99.90;;;;;;5074691;28;20024;-71
2024/02/19 05:16:48;;;;;;;10.23;7.37;;;8.80;99.90;;;;;;5074425;28;20579;-71
2024/02/19 05:19:13;;;;;;;14.23;8.00;;;8.70;99.90;;;;;;5073723;28;20052;-71
2024/02/19 05:21:41;;;;;;;10.23;7.07;;;8.70;99.90;;;;;;5053997;28;20033;-70
2024/02/19 05:24:08;;;;;;;11.70;7.57;;;8.80;99.90;;;;;;5054721;28;20033;-71
2024/02/19 05:26:34;;;;;;;14.97;8.50;;;8.80;99.90;;;;;;5054567;28;20025;-71
2024/02/19 05:29:00;;;;;;;16.83;8.13;;;8.80;99.90;;;;;;5054096;28;20021;-71
2024/02/19 05:31:34;;;;;;;18.60;8.07;;;8.80;99.90;;;;;;5054732;28;20022;-70
2024/02/19 05:34:03;;;;;;;13.40;7.40;;;8.80;99.90;;;;;;5054618;28;20029;-70
2024/02/19 05:36:30;;;;;;;12.50;8.63;;;8.80;99.90;;;;;;5054715;28;20124;-70
2024/02/19 05:38:55;;;;;;;11.23;8.33;;;8.80;99.90;;;;;;5054364;28;20021;-70
2024/02/19 05:41:21;;;;;;;15.30;8.60;;;8.80;99.90;;;;;;5054194;28;20029;-71
2024/02/19 05:43:47;;;;;;;14.97;8.87;;;8.80;99.90;;;;;;5055062;28;20526;-70
2024/02/19 05:46:14;;;;;;;17.03;8.10;;;8.80;99.90;;;;;;5055097;28;20059;-71
2024/02/19 05:48:43;;;;;;;12.80;7.97;;;8.80;99.90;;;;;;5054960;28;20362;-70
2024/02/19 05:58:31;;;;;;;15.73;8.80;;;8.80;99.90;;;;;;4859814;29;20513;-70
2024/02/19 06:01:10;;;;;;;16.43;9.53;;;8.80;99.90;;;;;;4897041;29;20049;-70
2024/02/19 06:13:51;;;;;;;22.37;12.10;;;8.80;99.90;;;;;;4840699;29;20070;-70
2024/02/19 06:17:28;;;;;;;24.93;8.80;;;8.80;99.90;;;;;;4838764;29;20430;-71
2024/02/19 06:20:22;;;;;;;13.50;8.40;;;8.80;99.90;;;;;;4840849;29;20286;-71
2024/02/19 06:22:50;;;;;;;15.27;9.27;;;8.80;99.90;;;;;;4914683;29;20052;-71
2024/02/19 06:25:16;;;;;;;14.17;8.30;;;8.80;99.90;;;;;;4987887;28;20069;-70
2024/02/19 06:27:42;;;;;;;13.77;8.33;;;8.80;99.90;;;;;;5014041;28;20406;-71
2024/02/19 06:30:08;;;;;;;15.00;8.03;;;8.80;99.90;;;;;;5013977;28;20025;-71
2024/02/19 06:32:34;;;;;;;17.87;7.47;;;8.80;99.90;;;;;;5012103;28;20394;-70
2024/02/19 06:34:59;;;;;;;12.97;7.23;;;8.80;99.90;;;;;;5012812;28;20029;-70
2024/02/19 06:37:25;;;;;;;15.23;7.77;;;8.80;99.90;;;;;;5013134;28;20065;-71
2024/02/19 06:39:51;;;;;;;11.97;7.57;;;8.80;99.90;;;;;;5013385;28;20474;-71
2024/02/19 06:42:18;;;;;;;12.17;6.67;;;8.80;99.90;;;;;;5012135;28;20498;-71
2024/02/19 06:44:43;;;;;;;11.40;6.93;;;8.80;99.90;;;;;;5011951;28;20117;-70
2024/02/19 06:47:11;;;;;;;11.77;6.70;;;8.80;99.90;;;;;;5013187;28;20101;-70
2024/02/19 06:49:37;;;;;;;9.47;6.40;;;8.90;99.90;;;;;;5013438;28;20022;-71
2024/02/19 06:52:03;;;;;;;12.10;6.43;;;8.90;99.90;;;;;;5013663;28;20101;-70
2024/02/19 06:54:29;;;;;;;11.40;6.07;;;8.90;99.90;;;;;;5011823;28;20057;-70
2024/02/19 06:56:54;;;;;;;9.70;6.07;;;8.90;99.90;;;;;;5012709;28;20037;-71
2024/02/19 06:59:20;;;;;;;11.90;6.60;;;8.90;99.90;;;;;;5013099;28;20058;-70
2024/02/19 07:01:46;;;;;;;12.57;6.43;;;9.00;99.90;;;;;;5010741;28;20033;-70
2024/02/19 07:04:13;;;;;;;9.93;6.63;;;9.00;99.90;;;;;;5011075;28;20025;-69
2024/02/19 07:06:39;;;;;;;10.20;6.80;;;9.00;99.90;;;;;;5012687;28;20025;-70
2024/02/19 07:09:05;;;;;;;11.50;7.47;;;9.10;99.90;;;;;;5011956;28;20379;-70
2024/02/19 07:11:31;;;;;;;11.90;7.30;;;9.10;99.90;;;;;;5011268;28;20041;-71
2024/02/19 07:13:57;;;;;;;18.97;7.50;;;9.10;99.90;;;;;;5011624;28;20021;-71
2024/02/19 07:16:23;;;;;;;18.27;7.77;;;9.20;99.90;;;;;;5015806;28;20042;-71
2024/02/19 07:18:52;;;;;;;15.57;8.60;;;9.20;99.90;;;;;;5051132;28;20508;-70
2024/02/19 07:21:18;;;;;;;15.83;7.30;;;9.20;99.90;;;;;;5033037;28;20432;-70
2024/02/19 07:23:44;;;;;;;16.07;7.40;;;9.30;99.90;;;;;;5051431;28;20025;-70
2024/02/19 07:26:10;;;;;;;11.47;7.27;;;9.30;99.90;;;;;;5057187;28;20090;-69
2024/02/19 07:28:35;;;;;;;16.90;7.67;;;9.20;99.90;;;;;;5072586;28;20029;-70
2024/02/19 07:31:01;;;;;;;16.33;7.77;;;9.30;99.90;;;;;;5072659;28;20063;-70
2024/02/19 07:33:28;;;;;;;13.77;8.53;;;9.30;99.90;;;;;;5034909;28;20481;-70
2024/02/19 07:35:53;;;;;;;16.83;8.30;;;9.30;99.90;;;;;;5054531;28;20048;-70
2024/02/19 07:39:01;;;;;;;19.33;8.20;;;9.30;99.90;;;;;;5056307;28;20032;-71
2024/02/19 07:41:39;;;;;;;11.20;7.57;;;9.20;99.90;;;;;;5055472;28;20056;-69
2024/02/19 07:44:17;;;;;;;11.33;7.30;;;9.20;99.90;;;;;;5055929;28;20025;-70
2024/02/19 07:48:06;;;;;;;14.07;6.50;;;9.20;99.90;;;;;;5054977;28;20099;-70
2024/02/19 07:50:22;;;;;;;14.50;6.60;;;9.20;99.90;;;;;;4941588;28;20075;-70
2024/02/19 07:52:49;;;;;;;16.20;7.17;;;9.20;99.90;;;;;;5014258;28;20390;-69
2024/02/19 08:01:54;;;;;;;12.63;6.27;;;9.30;99.90;;;;;;4974093;28;20121;-70
2024/02/19 08:04:26;;;;;;;15.88;6.65;;;9.40;99.90;;;;;;4962747;28;20027;-70
2024/02/19 08:06:52;;;;;;;;;;;9.40;99.90;;;;;;4975071;28;20038;-71
2024/02/19 08:09:18;;;;;;;14.73;8.70;;;9.50;99.90;;;;;;4955118;28;19907;-71
2024/02/19 08:11:44;;;;;;;15.43;8.33;;;9.50;99.90;;;;;;5001331;28;20098;-71
2024/02/19 08:14:10;;;;;;;16.60;9.17;;;9.60;99.90;;;;;;5042206;28;20021;-70
2024/02/19 08:16:36;;;;;;;14.70;9.27;;;9.60;99.90;;;;;;5055188;28;20037;-71
2024/02/19 08:19:02;;;;;;;16.30;9.53;;;9.60;99.90;;;;;;5055160;28;20021;-70
2024/02/19 08:21:28;;;;;;;13.67;9.23;;;9.50;99.90;;;;;;5055371;28;20029;-70
2024/02/19 08:23:54;;;;;;;15.23;9.23;;;9.60;99.90;;;;;;5064362;28;20128;-71
2024/02/19 08:26:20;;;;;;;22.00;9.67;;;9.60;99.90;;;;;;5052500;28;20044;-72
2024/02/19 08:28:47;;;;;;;14.13;9.43;;;9.60;99.90;;;;;;5052613;28;20035;-71
2024/02/19 08:31:12;;;;;;;15.97;9.10;;;9.60;99.90;;;;;;5054837;28;20111;-71
2024/02/19 08:33:38;;;;;;;14.47;9.47;;;9.60;99.90;;;;;;5054512;28;20099;-71
2024/02/19 08:36:04;;;;;;;23.43;10.00;;;9.60;99.90;;;;;;5054890;28;20036;-70
2024/02/19 08:38:30;;;;;;;12.80;8.70;;;9.60;99.90;;;;;;5054738;28;20500;-70
2024/02/19 08:40:56;;;;;;;12.17;7.67;;;9.70;99.90;;;;;;5054728;28;20021;-71
2024/02/19 08:43:22;;;;;;;20.73;9.20;;;9.70;99.90;;;;;;5054931;28;20037;-71
2024/02/19 08:45:48;;;;;;;14.50;8.47;;;9.70;99.90;;;;;;5053010;28;20025;-69
2024/02/19 08:48:14;;;;;;;20.30;8.33;;;9.80;99.90;;;;;;5050552;28;20120;-70
2024/02/19 08:50:40;;;;;;;12.30;8.40;;;9.80;99.90;;;;;;5055048;28;20111;-70
2024/02/19 08:53:06;;;;;;;15.37;8.57;;;9.80;99.90;;;;;;5054933;28;20025;-68
2024/02/19 08:55:32;;;;;;;13.80;8.77;;;9.90;99.90;;;;;;5054898;28;20034;-68
2024/02/19 08:57:57;;;;;;;13.47;8.50;;;9.90;99.90;;;;;;5054980;28;20037;-68
2024/02/19 09:00:23;;;;;;;11.50;8.03;;;9.90;99.90;;;;;;5054536;28;20124;-68
2024/02/19 09:02:50;;;;;;;12.13;8.80;;;9.90;99.90;;;;;;5058949;28;20086;-69
2024/02/19 09:05:19;;;;;;;15.20;9.02;;;9.90;99.90;;;;;;5053467;28;20123;-70
2024/02/19 09:07:46;;;;;;;12.63;8.83;;;9.90;99.90;;;;;;5073172;28;20028;-68
2024/02/19 09:10:12;;;;;;;16.03;8.63;;;9.90;99.90;;;;;;5071549;28;20032;-71
2024/02/19 09:12:38;;;;;;;14.07;9.03;;;10.00;99.90;;;;;;5088076;22;20035;-72
2024/02/19 09:15:04;;;;;;;13.93;8.33;;;10.00;99.90;;;;;;5053136;28;20025;-70
2024/02/19 09:17:30;;;;;;;13.83;9.20;;;10.00;99.90;;;;;;5037385;28;20506;-70
2024/02/19 09:19:56;;;;;;;17.27;9.77;;;10.00;99.90;;;;;;5054963;28;20057;-71
2024/02/19 09:22:22;;;;;;;12.87;9.77;;;10.00;99.90;;;;;;5054483;28;20021;-71
2024/02/19 09:24:50;;;;;;;14.70;9.50;;;10.10;99.90;;;;;;5054640;28;20017;-70
2024/02/19 09:27:15;;;;;;;19.03;8.33;;;10.10;99.90;;;;;;5054392;28;20503;-71
2024/02/19 09:29:42;;;;;;;19.40;9.43;;;10.20;99.90;;;;;;5054368;28;20108;-71
2024/02/19 09:32:08;;;;;;;16.17;8.73;;;10.20;99.90;;;;;;5054674;28;20036;-72
2024/02/19 09:34:35;;;;;;;18.07;9.10;;;10.20;99.90;;;;;;5054588;28;20481;-73
2024/02/19 09:37:02;;;;;;;21.60;9.03;;;10.30;99.90;;;;;;5054251;28;20041;-71
2024/02/19 09:39:28;;;;;;;14.93;9.18;;;10.30;99.90;;;;;;5054144;28;20066;-71
2024/02/19 09:41:54;;;;;;;17.23;9.52;;;10.30;99.90;;;;;;5053717;28;20108;-72
2024/02/19 09:44:20;;;;;;;13.82;8.80;;;10.40;99.90;;;;;;5051861;28;20024;-71
2024/02/19 09:46:52;;;;;;;19.20;9.70;;;10.40;99.90;;;;;;5052873;28;20029;-71
2024/02/19 09:49:21;;;;;;;29.23;10.23;;;10.40;99.90;;;;;;5051945;28;20036;-76
2024/02/19 09:51:54;;;;;;;14.95;9.30;;;10.40;99.90;;;;;;5052260;28;20029;-71
2024/02/19 09:54:21;;;;;;;19.23;9.60;;;10.50;99.90;;;;;;5051973;28;20025;-70
2024/02/19 09:56:50;;;;;;;19.27;11.13;;;10.60;99.90;;;;;;5051855;28;20037;-70
2024/02/19 09:59:16;;;;;;;22.60;10.95;;;10.60;99.90;;;;;;5051979;28;20090;-71
2024/02/19 10:01:42;;;;;;;18.48;11.25;;;10.70;99.90;;;;;;5052267;28;20078;-71
2024/02/19 10:04:10;;;;;;;13.13;9.38;;;10.70;99.90;;;;;;5053376;28;20033;-70
2024/02/19 10:06:36;;;;;;;15.38;8.07;;;10.70;99.90;;;;;;5053860;28;20063;-70
2024/02/19 10:09:11;;;;;;;11.98;8.25;;;10.80;99.90;;;;;;5053595;28;20515;-70
2024/02/19 10:14:13;;;;;;;10.80;7.35;;;10.90;99.90;;;;;;4752911;23;20060;-70
2024/02/19 10:16:39;;;;;;;17.73;8.15;;;10.90;99.90;;;;;;5052591;28;20032;-70
2024/02/19 10:19:05;;;;;;;10.13;7.95;;;11.00;99.90;;;;;;5048654;28;20487;-70
2024/02/19 10:21:31;;;;;;;11.80;8.80;;;11.00;99.90;;;;;;5043289;28;20358;-70
2024/02/19 10:23:57;;;;;;;13.40;9.50;;;11.10;99.90;;;;;;5048176;28;20108;-70
2024/02/19 10:26:23;;;;;;;15.05;7.97;;;11.10;99.90;;;;;;5051538;28;20028;-70
2024/02/19 10:28:54;;;;;;;14.30;8.05;;;11.10;99.90;;;;;;5053394;28;20021;-70
2024/02/19 10:31:21;;;;;;;17.10;9.18;;;11.20;99.90;;;;;;5053063;28;20031;-70
2024/02/19 10:33:47;;;;;;;20.75;9.15;;;11.20;99.90;;;;;;5053041;28;20029;-71
2024/02/19 10:36:18;;;;;;;11.50;8.98;;;11.20;99.90;;;;;;5053004;28;20040;-70
2024/02/19 10:38:44;;;;;;;11.10;8.05;;;11.30;99.90;;;;;;5052818;28;20119;-70
2024/02/19 10:41:10;;;;;;;32.05;9.82;;;11.30;99.90;;;;;;5034768;28;20057;-70
2024/02/19 10:43:36;;;;;;;15.27;8.48;;;11.40;99.90;;;;;;5053089;28;20063;-70
2024/02/19 10:46:04;;;;;;;14.93;9.02;;;11.40;99.90;;;;;;5052910;28;20234;-70
2024/02/19 10:48:31;;;;;;;13.70;7.82;;;11.40;99.90;;;;;;5052589;28;20029;-70
2024/02/19 10:50:57;;;;;;;19.35;8.48;;;11.50;99.90;;;;;;5052875;28;20108;-70
2024/02/19 10:53:28;;;;;;;11.63;7.70;;;11.50;99.90;;;;;;5053096;28;20132;-70
2024/02/19 10:56:15;;;;;;;12.05;8.05;;;11.70;99.90;;;;;;5052820;28;20047;-71
2024/02/19 10:58:55;;;;;;;11.02;8.38;;;11.80;99.90;;;;;;5052983;28;20029;-71
2024/02/19 11:01:37;;;;;;;20.88;9.27;;;11.80;99.90;;;;;;5053167;28;20078;-70
2024/02/19 11:04:16;;;;;;;17.02;8.48;;;12.00;99.90;;;;;;5052856;28;20086;-70
2024/02/19 11:06:47;;;;;;;12.73;8.32;;;12.00;99.90;;;;;;5053000;28;20037;-70
2024/02/19 11:09:13;;;;;;;11.82;8.75;;;12.00;99.90;;;;;;5052312;28;20048;-70
2024/02/19 11:12:00;;;;;;;14.15;8.00;;;12.10;99.90;;;;;;5052884;28;20065;-71
2024/02/19 11:14:37;;;;;;;14.20;8.70;;;12.10;99.90;;;;;;5052204;28;20516;-71
2024/02/19 11:17:03;;;;;;;15.15;7.75;;;12.10;99.90;;;;;;5052411;28;20372;-71
2024/02/19 11:19:36;;;;;;;11.55;7.82;;;12.10;99.90;;;;;;5052680;28;20029;-71
2024/02/19 11:22:05;;;;;;;15.65;7.72;;;12.10;99.90;;;;;;5052767;28;20017;-71
2024/02/19 11:24:31;;;;;;;10.65;7.85;;;12.10;99.90;;;;;;5052851;28;20036;-71
2024/02/19 11:26:57;;;;;;;12.00;7.85;;;12.20;99.90;;;;;;5052735;28;20017;-71
2024/02/19 11:29:24;;;;;;;16.00;8.32;;;12.20;99.90;;;;;;5052550;28;20048;-71
2024/02/19 11:32:00;;;;;;;16.75;8.68;;;12.20;99.90;;;;;;5052614;28;20025;-71
2024/02/19 11:34:26;;;;;;;13.43;7.30;;;12.30;99.90;;;;;;5052472;28;20025;-71
2024/02/19 11:37:04;;;;;;;11.82;7.75;;;12.30;99.90;;;;;;5052533;28;20041;-71
2024/02/19 11:39:32;;;;;;;14.80;8.13;;;12.40;99.90;;;;;;5052643;28;20055;-71
2024/02/19 11:41:59;;;;;;;13.85;8.10;;;12.60;99.90;;;;;;5052593;28;20389;-71
2024/02/19 11:44:29;;;;;;;13.25;7.25;;;12.70;99.90;;;;;;5052436;28;20028;-72
2024/02/19 11:46:56;;;;;;;12.40;7.05;;;12.90;99.90;;;;;;5052449;28;20480;-71
2024/02/19 11:49:22;;;;;;;10.45;6.97;;;13.10;99.90;;;;;;5052225;28;20103;-72
2024/02/19 11:51:48;;;;;;;9.50;6.70;;;13.30;99.90;;;;;;5052088;28;20036;-72
2024/02/19 11:54:15;;;;;;;10.57;5.97;;;13.40;99.90;;;;;;5052380;28;20049;-70
2024/02/19 11:56:51;;;;;;;15.88;6.35;;;13.50;99.90;;;;;;5052168;28;20032;-69
2024/02/19 11:59:19;;;;;;;8.98;5.38;;;13.60;99.90;;;;;;5052564;28;20111;-70
2024/02/19 12:01:46;;;;;;;10.63;5.72;;;13.60;99.90;;;;;;5052466;28;20025;-70
2024/02/19 12:04:13;;;;;;;10.63;6.88;;;13.70;99.90;;;;;;5052489;28;20021;-70
2024/02/19 12:06:40;;;;;;;10.98;6.13;;;13.70;99.90;;;;;;5051346;28;20449;-70
2024/02/19 12:09:10;;;;;;;7.68;4.38;;;13.80;99.90;;;;;;5051801;28;20462;-70
2024/02/19 12:11:37;;;;;;;7.43;5.00;;;13.90;99.90;;;;;;5051971;28;20079;-70
2024/02/19 12:14:04;;;;;;;8.13;5.15;;;13.90;99.90;;;;;;5051053;28;20049;-70
2024/02/19 12:16:30;;;;;;;7.43;5.43;;;14.00;99.90;;;;;;5032750;28;20395;-71
2024/02/19 12:18:56;;;;;;;9.05;5.50;;;14.00;99.90;;;;;;5051309;28;20032;-70
2024/02/19 12:21:22;;;;;;;7.97;5.25;;;14.10;99.90;;;;;;5052447;28;20021;-70
2024/02/19 12:23:52;;;;;;;10.13;4.60;;;14.10;99.90;;;;;;5055729;28;20484;-71
2024/02/19 12:26:18;;;;;;;5.72;4.50;;;14.20;99.90;;;;;;5055635;28;20025;-71
2024/02/19 12:28:44;;;;;;;7.70;4.43;;;14.30;99.90;;;;;;5055722;28;20021;-71
2024/02/19 12:31:10;;;;;;;7.30;5.40;;;14.30;99.90;;;;;;5038172;28;20477;-71
2024/02/19 12:33:39;;;;;;;9.13;5.40;;;14.30;99.30;;;;;;5055379;28;20021;-71
2024/02/19 12:36:14;;;;;;;7.63;5.22;;;14.40;99.60;;;;;;5055325;28;20017;-71
2024/02/19 12:38:41;;;;;;;7.97;5.85;;;14.40;98.90;;;;;;5039166;28;20045;-71
2024/02/19 12:41:16;;;;;;;7.55;5.50;;;14.50;99.20;;;;;;5037350;28;20494;-71
2024/02/19 12:43:44;;;;;;;9.73;5.38;;;14.50;99.10;;;;;;5054333;28;20025;-71
2024/02/19 12:46:12;;;;;;;6.45;5.00;;;14.60;99.30;;;;;;5055081;28;20484;-71
2024/02/19 12:48:44;;;;;;;9.60;5.00;;;14.70;99.40;;;;;;5054497;28;20078;-71
2024/02/19 12:51:14;;;;;;;7.70;4.80;;;14.70;97.90;;;;;;5054933;28;20472;-72
2024/02/19 12:53:41;;;;;;;8.85;5.43;;;14.80;98.20;;;;;;5055181;28;20028;-72
2024/02/19 12:56:07;;;;;;;6.28;4.30;;;14.80;98.60;;;;;;5054935;28;20504;-72
2024/02/19 12:58:33;;;;;;;9.40;4.85;;;14.80;98.40;;;;;;5054977;28;20381;-72
2024/02/19 13:00:59;;;;;;;9.65;5.53;;;14.90;97.50;;;;;;5054475;28;20024;-71
2024/02/19 13:03:26;;;;;;;7.18;4.70;;;14.90;97.10;;;;;;5054675;28;20025;-71
2024/02/19 13:05:52;;;;;;;6.63;5.10;;;15.00;97.50;;;;;;5054673;28;20384;-72
2024/02/19 13:08:18;;;;;;;8.55;4.43;;;15.00;97.30;;;;;;5055042;28;20120;-71
2024/02/19 13:10:44;;;;;;;5.80;4.80;;;15.00;97.50;;;;;;5054880;28;20100;-70
2024/02/19 13:13:16;;;;;;;7.13;4.47;;;15.10;97.80;;;;;;5055114;28;20045;-70
2024/02/19 13:15:43;;;;;;;7.82;5.07;;;15.10;97.60;;;;;;5054596;28;20393;-71
2024/02/19 13:18:10;;;;;;;7.50;5.05;;;15.20;97.40;;;;;;5054340;28;20041;-71
2024/02/19 13:20:38;;;;;;;11.80;5.15;;;15.20;97.10;;;;;;5054230;28;20126;-71
2024/02/19 13:23:04;;;;;;;8.25;4.93;;;15.30;97.50;;;;;;5054450;28;20029;-71
2024/02/19 13:25:30;;;;;;;8.07;5.50;;;15.30;97.10;;;;;;5054723;28;20048;-70
2024/02/19 13:27:56;;;;;;;8.52;5.22;;;15.20;96.90;;;;;;5054098;28;20052;-70
2024/02/19 13:30:23;;;;;;;9.43;5.28;;;15.20;97.60;;;;;;5054421;28;20033;-70
2024/02/19 13:32:49;;;;;;;8.40;5.95;;;15.20;97.50;;;;;;5053835;28;20040;-70
2024/02/19 13:35:17;;;;;;;9.10;5.80;;;15.20;96.90;;;;;;5054103;28;20469;-71
2024/02/19 13:37:43;;;;;;;6.93;5.45;;;15.20;97.20;;;;;;5054404;28;20057;-70
2024/02/19 13:40:10;;;;;;;8.32;6.13;;;15.10;96.90;;;;;;5054478;28;20032;-69
2024/02/19 13:42:40;;;;;;;10.93;6.93;;;15.10;96.60;;;;;;5054432;28;20389;-70
2024/02/19 13:45:09;;;;;;;9.50;7.30;;;15.00;97.00;;;;;;5054130;28;20404;-71
2024/02/19 13:47:41;;;;;;;16.55;9.75;;;15.00;96.80;;;;;;5054498;28;20036;-70
2024/02/19 13:50:08;;;;;;;;;;;15.00;97.20;;;;;;5054815;28;20028;-70
2024/02/19 13:52:34;;;;;;;13.80;8.68;;;14.90;97.40;;;;;;5054199;28;19904;-70
2024/02/19 13:55:01;;;;;;;10.20;7.65;;;14.90;97.70;;;;;;5054505;28;20090;-70
2024/02/19 13:57:27;;;;;;;24.65;15.90;;;14.80;98.00;;;;;;5053997;28;20036;-70
2024/02/19 13:59:55;;;;;;;20.02;13.63;;;14.80;97.90;;;;;;5053983;28;20021;-70
2024/02/19 14:02:21;;;;;;;27.13;15.75;;;14.80;98.30;;;;;;5036399;28;20100;-71
2024/02/19 14:04:46;;;;;;;19.95;14.18;;;14.80;98.40;;;;;;5054142;28;20056;-71
2024/02/19 14:07:12;;;;;;;10.23;8.50;;;14.70;98.50;;;;;;5054210;28;20111;-70
2024/02/19 14:09:41;;;;;;;12.55;9.57;;;14.70;98.80;;;;;;5054061;28;20431;-70
2024/02/19 14:12:08;;;;;;;15.38;9.45;;;14.70;99.10;;;;;;5053780;28;20029;-71
2024/02/19 14:14:34;;;;;;;16.98;9.63;;;14.70;99.30;;;;;;5053529;28;20472;-71
2024/02/19 14:17:00;;;;;;;21.95;16.38;;;14.60;99.30;;;;;;5053564;28;20060;-70
2024/02/19 14:19:27;;;;;;;14.95;10.50;;;14.60;99.60;;;;;;5053972;28;20060;-71